This is the latest recevied weather packets stored in our database for station/object VE6CPK-13. If no packets are shown the sender has not sent any weather packets the latest 10 day(s).
| Time | Temp. | Humidity | Pressure | Rain* | Wind** | Luminosity | Snow |
|---|---|---|---|---|---|---|---|
| 1777384780 | 2.22° C | 55% | 1012.8 hPa | 0 mm | - | - | - |
| 1777384480 | 2.22° C | 56% | 1012.8 hPa | 0 mm | - | - | - |
| 1777384180 | 2.22° C | 56% | 1012.8 hPa | 0 mm | - | - | - |
| 1777383281 | 1.67° C | 58% | 1012.6 hPa | 0 mm | - | - | - |
| 1777382380 | 1.11° C | 60% | 1012.5 hPa | 0 mm | - | - | - |
| 1777381780 | 0.56° C | 63% | 1012.3 hPa | 0 mm | - | - | - |
| 1777381481 | 0.56° C | 64% | 1012.2 hPa | 0 mm | - | - | - |
| 1777380581 | -0.56° C | 71% | 1012.2 hPa | 0 mm | - | - | - |
| 1777379980 | -1.67° C | 76% | 1012.1 hPa | 0 mm | - | - | - |
| 1777379380 | -2.22° C | 79% | 1012.1 hPa | 0 mm | - | - | - |
| 1777378780 | -2.22° C | 82% | 1012.2 hPa | 0 mm | - | - | - |
| 1777378480 | -2.78° C | 82% | 1012.2 hPa | 0 mm | - | - | - |
| 1777378180 | -2.78° C | 83% | 1012.1 hPa | 0 mm | - | - | - |
| 1777377880 | -3.33° C | 83% | 1012.2 hPa | 0 mm | - | - | - |
| 1777377581 | -3.33° C | 82% | 1012.1 hPa | 0 mm | - | - | - |
| 1777376980 | -3.33° C | 81% | 1012.2 hPa | 0 mm | - | - | - |
| 1777376080 | -3.33° C | 81% | 1012.3 hPa | 0 mm | - | - | - |
| 1777375479 | -3.33° C | 80% | 1012.2 hPa | 0 mm | - | - | - |
| 1777375179 | -2.78° C | 80% | 1012.3 hPa | 0 mm | - | - | - |
| 1777374580 | -2.78° C | 80% | 1012.2 hPa | 0 mm | - | - | - |
| 1777373380 | -2.78° C | 80% | 1012.3 hPa | 0 mm | - | - | - |
| 1777372481 | -2.78° C | 79% | 1012.4 hPa | 0 mm | - | - | - |
| 1777372181 | -2.78° C | 79% | 1012.3 hPa | 0 mm | - | - | - |
| 1777371879 | -2.78° C | 79% | 1012.2 hPa | 0 mm | - | - | - |
| 1777371579 | -2.78° C | 79% | 1012.2 hPa | 0 mm | - | - | - |
* Rain latest hour (hover to see other rain measurements)
** Current wind speed in m/s (hover to see current wind gust speed)